sensor_id;sensor_type;location;lat;lon;timestamp;temperature;humidity
4183;DHT22;2105;52.300;9.182;2022-07-29T00:00:37;18.30;1.00
4183;DHT22;2105;52.300;9.182;2022-07-29T00:03:04;18.30;1.00
4183;DHT22;2105;52.300;9.182;2022-07-29T00:05:31;18.40;1.00
4183;DHT22;2105;52.300;9.182;2022-07-29T00:07:57;18.40;1.00
4183;DHT22;2105;52.300;9.182;2022-07-29T00:10:24;18.40;1.00
4183;DHT22;2105;52.300;9.182;2022-07-29T00:12:52;18.40;1.00
4183;DHT22;2105;52.300;9.182;2022-07-29T00:15:19;18.40;1.00
4183;DHT22;2105;52.300;9.182;2022-07-29T00:17:45;18.40;1.00
4183;DHT22;2105;52.300;9.182;2022-07-29T00:20:12;18.40;1.00
4183;DHT22;2105;52.300;9.182;2022-07-29T00:22:39;18.40;1.00
4183;DHT22;2105;52.300;9.182;2022-07-29T00:25:06;18.40;1.00
4183;DHT22;2105;52.300;9.182;2022-07-29T00:27:33;18.40;1.00
4183;DHT22;2105;52.300;9.182;2022-07-29T00:30:02;18.40;1.00
4183;DHT22;2105;52.300;9.182;2022-07-29T00:32:29;18.40;1.00
4183;DHT22;2105;52.300;9.182;2022-07-29T00:34:56;18.40;1.00
4183;DHT22;2105;52.300;9.182;2022-07-29T00:37:40;18.40;1.00
4183;DHT22;2105;52.300;9.182;2022-07-29T00:40:07;18.40;1.00
4183;DHT22;2105;52.300;9.182;2022-07-29T00:42:41;18.30;1.00
4183;DHT22;2105;52.300;9.182;2022-07-29T00:45:10;18.30;1.00
4183;DHT22;2105;52.300;9.182;2022-07-29T00:47:37;18.30;1.00
4183;DHT22;2105;52.300;9.182;2022-07-29T00:50:05;18.30;1.00
4183;DHT22;2105;52.300;9.182;2022-07-29T00:52:33;18.30;1.00
4183;DHT22;2105;52.300;9.182;2022-07-29T00:55:02;18.30;1.00
4183;DHT22;2105;52.300;9.182;2022-07-29T00:57:29;18.10;1.00
4183;DHT22;2105;52.300;9.182;2022-07-29T00:59:56;18.20;1.00
4183;DHT22;2105;52.300;9.182;2022-07-29T01:02:24;18.20;1.00
4183;DHT22;2105;52.300;9.182;2022-07-29T01:04:51;18.20;1.00
4183;DHT22;2105;52.300;9.182;2022-07-29T01:07:18;18.10;1.00
4183;DHT22;2105;52.300;9.182;2022-07-29T01:09:45;18.00;1.00
4183;DHT22;2105;52.300;9.182;2022-07-29T01:12:14;17.90;1.00
4183;DHT22;2105;52.300;9.182;2022-07-29T01:14:43;17.90;1.00
4183;DHT22;2105;52.300;9.182;2022-07-29T01:17:13;17.90;1.00
4183;DHT22;2105;52.300;9.182;2022-07-29T01:19:50;17.80;1.00
4183;DHT22;2105;52.300;9.182;2022-07-29T01:22:27;17.70;1.00
4183;DHT22;2105;52.300;9.182;2022-07-29T01:25:17;17.70;1.00
4183;DHT22;2105;52.300;9.182;2022-07-29T01:28:01;17.60;1.00
4183;DHT22;2105;52.300;9.182;2022-07-29T01:30:32;17.60;1.00
4183;DHT22;2105;52.300;9.182;2022-07-29T01:33:07;17.50;1.00
4183;DHT22;2105;52.300;9.182;2022-07-29T01:35:38;17.50;1.00
4183;DHT22;2105;52.300;9.182;2022-07-29T01:38:08;17.40;1.00
4183;DHT22;2105;52.300;9.182;2022-07-29T01:40:40;17.30;1.00
4183;DHT22;2105;52.300;9.182;2022-07-29T01:43:11;17.40;1.00
4183;DHT22;2105;52.300;9.182;2022-07-29T01:45:43;17.40;1.00
4183;DHT22;2105;52.300;9.182;2022-07-29T01:48:15;17.40;1.00
4183;DHT22;2105;52.300;9.182;2022-07-29T01:50:47;17.40;1.00
4183;DHT22;2105;52.300;9.182;2022-07-29T01:53:21;17.50;1.00
4183;DHT22;2105;52.300;9.182;2022-07-29T01:55:51;17.50;1.00
4183;DHT22;2105;52.300;9.182;2022-07-29T01:58:19;17.50;1.00
4183;DHT22;2105;52.300;9.182;2022-07-29T02:00:49;17.40;1.00
4183;DHT22;2105;52.300;9.182;2022-07-29T02:03:17;17.40;1.00
4183;DHT22;2105;52.300;9.182;2022-07-29T02:05:46;17.50;1.00
4183;DHT22;2105;52.300;9.182;2022-07-29T02:08:15;17.40;1.00
4183;DHT22;2105;52.300;9.182;2022-07-29T02:10:43;17.40;1.00
4183;DHT22;2105;52.300;9.182;2022-07-29T02:13:11;17.40;1.00
4183;DHT22;2105;52.300;9.182;2022-07-29T02:15:42;17.40;1.00
4183;DHT22;2105;52.300;9.182;2022-07-29T02:18:14;17.40;1.00
4183;DHT22;2105;52.300;9.182;2022-07-29T02:20:43;17.40;1.00
4183;DHT22;2105;52.300;9.182;2022-07-29T02:23:12;17.40;1.00
4183;DHT22;2105;52.300;9.182;2022-07-29T02:25:41;17.40;1.00
4183;DHT22;2105;52.300;9.182;2022-07-29T02:28:09;17.30;1.00
4183;DHT22;2105;52.300;9.182;2022-07-29T02:30:39;17.40;1.00
4183;DHT22;2105;52.300;9.182;2022-07-29T02:33:07;17.40;1.00
4183;DHT22;2105;52.300;9.182;2022-07-29T02:35:37;17.40;1.00
4183;DHT22;2105;52.300;9.182;2022-07-29T02:38:05;17.40;1.00
4183;DHT22;2105;52.300;9.182;2022-07-29T02:40:50;17.30;1.00
4183;DHT22;2105;52.300;9.182;2022-07-29T02:43:19;17.30;1.00
4183;DHT22;2105;52.300;9.182;2022-07-29T02:45:50;17.30;1.00
4183;DHT22;2105;52.300;9.182;2022-07-29T02:48:21;17.30;1.00
4183;DHT22;2105;52.300;9.182;2022-07-29T02:50:53;17.30;1.00
4183;DHT22;2105;52.300;9.182;2022-07-29T02:53:24;17.30;1.00
4183;DHT22;2105;52.300;9.182;2022-07-29T02:55:55;17.30;1.00
4183;DHT22;2105;52.300;9.182;2022-07-29T02:58:26;17.20;1.00
4183;DHT22;2105;52.300;9.182;2022-07-29T03:00:53;17.30;1.00
4183;DHT22;2105;52.300;9.182;2022-07-29T03:03:22;17.40;1.00
4183;DHT22;2105;52.300;9.182;2022-07-29T03:05:55;17.40;1.00
4183;DHT22;2105;52.300;9.182;2022-07-29T03:08:23;17.40;1.00
4183;DHT22;2105;52.300;9.182;2022-07-29T03:10:51;17.40;1.00
4183;DHT22;2105;52.300;9.182;2022-07-29T03:13:19;17.30;1.00
4183;DHT22;2105;52.300;9.182;2022-07-29T03:15:47;17.30;1.00
4183;DHT22;2105;52.300;9.182;2022-07-29T03:18:15;17.30;1.00
4183;DHT22;2105;52.300;9.182;2022-07-29T03:20:42;17.40;1.00
4183;DHT22;2105;52.300;9.182;2022-07-29T03:23:10;17.40;1.00
4183;DHT22;2105;52.300;9.182;2022-07-29T03:25:37;17.40;1.00
4183;DHT22;2105;52.300;9.182;2022-07-29T03:28:04;17.40;1.00
4183;DHT22;2105;52.300;9.182;2022-07-29T03:30:30;17.50;1.00
4183;DHT22;2105;52.300;9.182;2022-07-29T03:32:57;17.40;1.00
4183;DHT22;2105;52.300;9.182;2022-07-29T03:35:24;17.50;1.00
4183;DHT22;2105;52.300;9.182;2022-07-29T03:37:50;17.40;1.00
4183;DHT22;2105;52.300;9.182;2022-07-29T03:40:22;17.40;1.00
4183;DHT22;2105;52.300;9.182;2022-07-29T03:42:51;17.40;1.00
4183;DHT22;2105;52.300;9.182;2022-07-29T03:45:21;17.30;1.00
4183;DHT22;2105;52.300;9.182;2022-07-29T03:47:51;17.30;1.00
4183;DHT22;2105;52.300;9.182;2022-07-29T03:50:18;17.30;1.00
4183;DHT22;2105;52.300;9.182;2022-07-29T03:52:47;17.20;1.00
4183;DHT22;2105;52.300;9.182;2022-07-29T03:55:14;17.10;1.00
4183;DHT22;2105;52.300;9.182;2022-07-29T03:57:42;17.10;1.00
4183;DHT22;2105;52.300;9.182;2022-07-29T04:00:11;17.10;1.00
4183;DHT22;2105;52.300;9.182;2022-07-29T04:02:38;17.10;1.00
4183;DHT22;2105;52.300;9.182;2022-07-29T04:05:11;17.10;1.00
4183;DHT22;2105;52.300;9.182;2022-07-29T04:07:38;17.10;1.00
4183;DHT22;2105;52.300;9.182;2022-07-29T04:10:06;17.20;1.00
4183;DHT22;2105;52.300;9.182;2022-07-29T04:12:32;17.30;1.00
4183;DHT22;2105;52.300;9.182;2022-07-29T04:15:00;17.30;1.00
4183;DHT22;2105;52.300;9.182;2022-07-29T04:17:27;17.30;1.00
4183;DHT22;2105;52.300;9.182;2022-07-29T04:19:54;17.40;1.00
4183;DHT22;2105;52.300;9.182;2022-07-29T04:22:22;17.50;1.00
4183;DHT22;2105;52.300;9.182;2022-07-29T04:24:49;17.40;1.00
4183;DHT22;2105;52.300;9.182;2022-07-29T04:27:15;17.40;1.00
4183;DHT22;2105;52.300;9.182;2022-07-29T04:29:42;17.40;1.00
4183;DHT22;2105;52.300;9.182;2022-07-29T04:32:10;17.50;1.00
4183;DHT22;2105;52.300;9.182;2022-07-29T04:34:37;17.50;1.00
4183;DHT22;2105;52.300;9.182;2022-07-29T04:37:03;17.60;1.00
4183;DHT22;2105;52.300;9.182;2022-07-29T04:39:30;17.60;1.00
4183;DHT22;2105;52.300;9.182;2022-07-29T04:41:56;17.60;1.00
4183;DHT22;2105;52.300;9.182;2022-07-29T04:44:23;17.60;1.00
4183;DHT22;2105;52.300;9.182;2022-07-29T04:46:50;17.50;1.00
4183;DHT22;2105;52.300;9.182;2022-07-29T04:49:17;17.50;1.00
4183;DHT22;2105;52.300;9.182;2022-07-29T04:51:44;17.50;1.00
4183;DHT22;2105;52.300;9.182;2022-07-29T04:54:11;17.50;1.00
4183;DHT22;2105;52.300;9.182;2022-07-29T04:56:37;17.50;1.00
4183;DHT22;2105;52.300;9.182;2022-07-29T04:59:04;17.50;1.00
4183;DHT22;2105;52.300;9.182;2022-07-29T05:01:30;17.60;1.00
4183;DHT22;2105;52.300;9.182;2022-07-29T05:03:57;17.50;1.00
4183;DHT22;2105;52.300;9.182;2022-07-29T05:06:25;17.60;1.00
4183;DHT22;2105;52.300;9.182;2022-07-29T05:08:52;17.60;1.00
4183;DHT22;2105;52.300;9.182;2022-07-29T05:11:18;17.50;1.00
4183;DHT22;2105;52.300;9.182;2022-07-29T05:13:45;17.60;1.00
4183;DHT22;2105;52.300;9.182;2022-07-29T05:16:11;17.50;1.00
4183;DHT22;2105;52.300;9.182;2022-07-29T05:18:38;17.50;1.00
4183;DHT22;2105;52.300;9.182;2022-07-29T05:21:05;17.50;1.00
4183;DHT22;2105;52.300;9.182;2022-07-29T05:23:33;17.50;1.00
4183;DHT22;2105;52.300;9.182;2022-07-29T05:25:59;17.60;1.00
4183;DHT22;2105;52.300;9.182;2022-07-29T05:28:26;17.60;1.00
4183;DHT22;2105;52.300;9.182;2022-07-29T05:30:53;17.60;1.00
4183;DHT22;2105;52.300;9.182;2022-07-29T05:33:19;17.60;1.00
4183;DHT22;2105;52.300;9.182;2022-07-29T05:35:46;17.70;1.00
4183;DHT22;2105;52.300;9.182;2022-07-29T05:38:13;17.70;1.00
4183;DHT22;2105;52.300;9.182;2022-07-29T05:40:40;17.80;1.00
4183;DHT22;2105;52.300;9.182;2022-07-29T05:43:07;17.90;1.00
4183;DHT22;2105;52.300;9.182;2022-07-29T05:45:34;18.00;1.00
4183;DHT22;2105;52.300;9.182;2022-07-29T05:48:00;18.10;1.00
4183;DHT22;2105;52.300;9.182;2022-07-29T05:50:27;18.20;1.00
4183;DHT22;2105;52.300;9.182;2022-07-29T05:52:54;18.30;1.00
4183;DHT22;2105;52.300;9.182;2022-07-29T05:55:20;18.40;1.00
4183;DHT22;2105;52.300;9.182;2022-07-29T05:57:48;18.50;1.00
4183;DHT22;2105;52.300;9.182;2022-07-29T06:00:16;18.50;1.00
4183;DHT22;2105;52.300;9.182;2022-07-29T06:02:42;18.60;1.00
4183;DHT22;2105;52.300;9.182;2022-07-29T06:05:09;18.60;1.00
4183;DHT22;2105;52.300;9.182;2022-07-29T06:07:35;18.60;1.00
4183;DHT22;2105;52.300;9.182;2022-07-29T06:10:03;18.60;1.00
4183;DHT22;2105;52.300;9.182;2022-07-29T06:12:29;18.60;1.00
4183;DHT22;2105;52.300;9.182;2022-07-29T06:14:57;18.60;1.00
4183;DHT22;2105;52.300;9.182;2022-07-29T06:17:24;18.60;1.00
4183;DHT22;2105;52.300;9.182;2022-07-29T06:19:51;18.60;1.00
4183;DHT22;2105;52.300;9.182;2022-07-29T06:22:17;18.60;1.00
4183;DHT22;2105;52.300;9.182;2022-07-29T06:24:44;18.50;1.00
4183;DHT22;2105;52.300;9.182;2022-07-29T06:27:11;18.50;1.00
4183;DHT22;2105;52.300;9.182;2022-07-29T06:29:38;18.50;1.00
4183;DHT22;2105;52.300;9.182;2022-07-29T06:32:06;18.60;1.00
4183;DHT22;2105;52.300;9.182;2022-07-29T06:34:34;18.60;1.00
4183;DHT22;2105;52.300;9.182;2022-07-29T06:37:05;18.60;1.00
4183;DHT22;2105;52.300;9.182;2022-07-29T06:39:33;18.70;1.00
4183;DHT22;2105;52.300;9.182;2022-07-29T06:42:00;18.70;1.00
4183;DHT22;2105;52.300;9.182;2022-07-29T06:44:27;18.80;1.00
4183;DHT22;2105;52.300;9.182;2022-07-29T06:46:53;18.80;1.00
4183;DHT22;2105;52.300;9.182;2022-07-29T06:49:21;18.90;1.00
4183;DHT22;2105;52.300;9.182;2022-07-29T06:51:49;18.90;1.00
4183;DHT22;2105;52.300;9.182;2022-07-29T06:54:16;18.90;1.00
4183;DHT22;2105;52.300;9.182;2022-07-29T06:56:43;18.90;1.00
4183;DHT22;2105;52.300;9.182;2022-07-29T06:59:11;18.90;1.00
4183;DHT22;2105;52.300;9.182;2022-07-29T07:01:39;19.00;1.00
4183;DHT22;2105;52.300;9.182;2022-07-29T07:04:07;19.10;1.00
4183;DHT22;2105;52.300;9.182;2022-07-29T07:06:36;19.10;1.00
4183;DHT22;2105;52.300;9.182;2022-07-29T07:09:03;19.20;1.00
4183;DHT22;2105;52.300;9.182;2022-07-29T07:11:29;19.30;1.00
4183;DHT22;2105;52.300;9.182;2022-07-29T07:13:56;19.40;1.00
4183;DHT22;2105;52.300;9.182;2022-07-29T07:16:23;19.40;1.00
4183;DHT22;2105;52.300;9.182;2022-07-29T07:18:49;19.50;1.00
4183;DHT22;2105;52.300;9.182;2022-07-29T07:21:16;19.60;1.00
4183;DHT22;2105;52.300;9.182;2022-07-29T07:23:44;19.50;1.00
4183;DHT22;2105;52.300;9.182;2022-07-29T07:26:10;19.60;1.00
4183;DHT22;2105;52.300;9.182;2022-07-29T07:28:37;19.60;1.00
4183;DHT22;2105;52.300;9.182;2022-07-29T07:31:04;19.60;1.00
4183;DHT22;2105;52.300;9.182;2022-07-29T07:33:31;19.60;1.00
4183;DHT22;2105;52.300;9.182;2022-07-29T07:35:58;19.60;1.00
4183;DHT22;2105;52.300;9.182;2022-07-29T07:38:25;19.70;1.00
4183;DHT22;2105;52.300;9.182;2022-07-29T07:40:53;19.70;1.00
4183;DHT22;2105;52.300;9.182;2022-07-29T07:43:19;19.80;1.00
4183;DHT22;2105;52.300;9.182;2022-07-29T07:45:47;19.80;1.00
4183;DHT22;2105;52.300;9.182;2022-07-29T07:48:13;19.70;1.00
4183;DHT22;2105;52.300;9.182;2022-07-29T07:50:40;19.70;1.00
4183;DHT22;2105;52.300;9.182;2022-07-29T07:53:06;19.80;1.00
4183;DHT22;2105;52.300;9.182;2022-07-29T07:55:33;19.90;1.00
4183;DHT22;2105;52.300;9.182;2022-07-29T07:58:01;19.90;1.00
4183;DHT22;2105;52.300;9.182;2022-07-29T08:00:28;19.90;1.00
4183;DHT22;2105;52.300;9.182;2022-07-29T08:02:54;19.90;1.00
4183;DHT22;2105;52.300;9.182;2022-07-29T08:05:21;20.10;1.00
4183;DHT22;2105;52.300;9.182;2022-07-29T08:07:47;20.00;1.00
4183;DHT22;2105;52.300;9.182;2022-07-29T08:10:14;20.10;1.00
4183;DHT22;2105;52.300;9.182;2022-07-29T08:13:03;20.30;1.00
4183;DHT22;2105;52.300;9.182;2022-07-29T08:15:30;20.60;1.00
4183;DHT22;2105;52.300;9.182;2022-07-29T08:17:57;20.60;1.00
4183;DHT22;2105;52.300;9.182;2022-07-29T08:20:23;20.40;1.00
4183;DHT22;2105;52.300;9.182;2022-07-29T08:22:50;20.30;1.00
4183;DHT22;2105;52.300;9.182;2022-07-29T08:25:18;20.20;1.00
4183;DHT22;2105;52.300;9.182;2022-07-29T08:27:46;20.10;1.00
4183;DHT22;2105;52.300;9.182;2022-07-29T08:30:14;20.10;1.00
4183;DHT22;2105;52.300;9.182;2022-07-29T08:32:40;20.00;1.00
4183;DHT22;2105;52.300;9.182;2022-07-29T08:35:07;19.90;1.00
4183;DHT22;2105;52.300;9.182;2022-07-29T08:37:34;19.90;1.00
4183;DHT22;2105;52.300;9.182;2022-07-29T08:40:01;19.90;1.00
4183;DHT22;2105;52.300;9.182;2022-07-29T08:42:28;20.00;1.00
4183;DHT22;2105;52.300;9.182;2022-07-29T08:44:54;20.10;1.00
4183;DHT22;2105;52.300;9.182;2022-07-29T08:47:23;20.20;1.00
4183;DHT22;2105;52.300;9.182;2022-07-29T08:49:51;20.50;1.00
4183;DHT22;2105;52.300;9.182;2022-07-29T08:52:18;20.70;1.00
4183;DHT22;2105;52.300;9.182;2022-07-29T08:54:45;20.90;1.00
4183;DHT22;2105;52.300;9.182;2022-07-29T08:57:13;21.10;1.00
4183;DHT22;2105;52.300;9.182;2022-07-29T08:59:42;21.30;1.00
4183;DHT22;2105;52.300;9.182;2022-07-29T09:02:15;21.40;99.90
4183;DHT22;2105;52.300;9.182;2022-07-29T09:04:43;21.40;99.90
4183;DHT22;2105;52.300;9.182;2022-07-29T09:07:14;21.40;99.90
4183;DHT22;2105;52.300;9.182;2022-07-29T09:09:42;21.40;99.90
4183;DHT22;2105;52.300;9.182;2022-07-29T09:12:09;21.40;99.90
4183;DHT22;2105;52.300;9.182;2022-07-29T09:14:37;21.40;99.90
4183;DHT22;2105;52.300;9.182;2022-07-29T09:17:03;21.40;99.90
4183;DHT22;2105;52.300;9.182;2022-07-29T09:19:31;21.60;99.90
4183;DHT22;2105;52.300;9.182;2022-07-29T09:22:03;21.80;99.90
4183;DHT22;2105;52.300;9.182;2022-07-29T09:24:38;22.10;99.90
4183;DHT22;2105;52.300;9.182;2022-07-29T09:27:19;22.30;99.90
4183;DHT22;2105;52.300;9.182;2022-07-29T09:29:47;22.40;99.90
4183;DHT22;2105;52.300;9.182;2022-07-29T09:32:21;23.00;99.90
4183;DHT22;2105;52.300;9.182;2022-07-29T09:34:47;23.20;99.90
4183;DHT22;2105;52.300;9.182;2022-07-29T09:37:27;23.00;99.90
4183;DHT22;2105;52.300;9.182;2022-07-29T09:39:54;22.50;99.90
4183;DHT22;2105;52.300;9.182;2022-07-29T09:42:28;22.30;99.90
4183;DHT22;2105;52.300;9.182;2022-07-29T09:44:55;22.30;99.90
4183;DHT22;2105;52.300;9.182;2022-07-29T09:47:21;22.40;99.90
4183;DHT22;2105;52.300;9.182;2022-07-29T09:49:53;22.50;99.90
4183;DHT22;2105;52.300;9.182;2022-07-29T09:52:20;22.80;99.90
4183;DHT22;2105;52.300;9.182;2022-07-29T09:54:49;23.10;99.90
4183;DHT22;2105;52.300;9.182;2022-07-29T09:57:25;23.40;99.90
4183;DHT22;2105;52.300;9.182;2022-07-29T09:59:56;23.60;99.90
4183;DHT22;2105;52.300;9.182;2022-07-29T10:02:28;23.70;99.90
4183;DHT22;2105;52.300;9.182;2022-07-29T10:04:55;23.90;99.90
4183;DHT22;2105;52.300;9.182;2022-07-29T10:07:22;24.10;99.90
4183;DHT22;2105;52.300;9.182;2022-07-29T10:09:55;24.10;99.90
4183;DHT22;2105;52.300;9.182;2022-07-29T10:12:23;24.20;99.90
4183;DHT22;2105;52.300;9.182;2022-07-29T10:14:50;24.30;99.90
4183;DHT22;2105;52.300;9.182;2022-07-29T10:17:18;24.50;99.90
4183;DHT22;2105;52.300;9.182;2022-07-29T10:19:45;24.70;99.90
4183;DHT22;2105;52.300;9.182;2022-07-29T10:22:12;24.80;99.90
4183;DHT22;2105;52.300;9.182;2022-07-29T10:24:39;25.00;99.90
4183;DHT22;2105;52.300;9.182;2022-07-29T10:27:08;25.20;99.90
4183;DHT22;2105;52.300;9.182;2022-07-29T10:29:35;25.50;99.90
4183;DHT22;2105;52.300;9.182;2022-07-29T10:37:52;25.10;99.90
4183;DHT22;2105;52.300;9.182;2022-07-29T10:40:26;24.90;99.90
4183;DHT22;2105;52.300;9.182;2022-07-29T10:43:18;24.90;99.90
4183;DHT22;2105;52.300;9.182;2022-07-29T10:45:47;25.00;99.90
4183;DHT22;2105;52.300;9.182;2022-07-29T10:48:14;24.90;99.90
4183;DHT22;2105;52.300;9.182;2022-07-29T10:50:58;24.60;99.90
4183;DHT22;2105;52.300;9.182;2022-07-29T10:53:46;24.30;99.90
4183;DHT22;2105;52.300;9.182;2022-07-29T10:56:24;24.40;99.90
4183;DHT22;2105;52.300;9.182;2022-07-29T10:59:25;24.30;99.90
4183;DHT22;2105;52.300;9.182;2022-07-29T11:01:53;24.00;99.90
4183;DHT22;2105;52.300;9.182;2022-07-29T11:07:24;23.70;99.90
4183;DHT22;2105;52.300;9.182;2022-07-29T11:10:19;23.80;99.90
4183;DHT22;2105;52.300;9.182;2022-07-29T11:12:47;23.70;99.90
4183;DHT22;2105;52.300;9.182;2022-07-29T11:15:15;23.70;99.90
4183;DHT22;2105;52.300;9.182;2022-07-29T11:18:04;23.60;99.90
4183;DHT22;2105;52.300;9.182;2022-07-29T11:20:34;23.70;99.90
4183;DHT22;2105;52.300;9.182;2022-07-29T11:23:01;23.60;99.90
4183;DHT22;2105;52.300;9.182;2022-07-29T11:25:43;23.60;99.90
4183;DHT22;2105;52.300;9.182;2022-07-29T11:28:15;23.60;99.90
4183;DHT22;2105;52.300;9.182;2022-07-29T11:30:51;23.60;99.90
4183;DHT22;2105;52.300;9.182;2022-07-29T11:33:29;23.50;99.90
4183;DHT22;2105;52.300;9.182;2022-07-29T11:36:08;23.30;99.90
4183;DHT22;2105;52.300;9.182;2022-07-29T11:38:35;23.00;99.90
4183;DHT22;2105;52.300;9.182;2022-07-29T11:41:22;23.00;99.90
4183;DHT22;2105;52.300;9.182;2022-07-29T11:43:51;23.00;99.90
4183;DHT22;2105;52.300;9.182;2022-07-29T11:46:46;23.10;99.90
4183;DHT22;2105;52.300;9.182;2022-07-29T11:49:19;23.30;99.90
4183;DHT22;2105;52.300;9.182;2022-07-29T11:51:50;23.20;99.90
4183;DHT22;2105;52.300;9.182;2022-07-29T11:54:23;23.30;99.90
4183;DHT22;2105;52.300;9.182;2022-07-29T11:56:51;23.50;99.90
4183;DHT22;2105;52.300;9.182;2022-07-29T11:59:19;23.70;99.90
4183;DHT22;2105;52.300;9.182;2022-07-29T12:01:54;23.60;99.90
4183;DHT22;2105;52.300;9.182;2022-07-29T12:04:20;23.70;99.90
4183;DHT22;2105;52.300;9.182;2022-07-29T12:06:49;23.80;99.90
4183;DHT22;2105;52.300;9.182;2022-07-29T12:09:16;23.70;99.90
4183;DHT22;2105;52.300;9.182;2022-07-29T12:11:44;24.00;99.90
4183;DHT22;2105;52.300;9.182;2022-07-29T12:14:24;24.30;99.90
4183;DHT22;2105;52.300;9.182;2022-07-29T12:16:51;24.60;99.90
4183;DHT22;2105;52.300;9.182;2022-07-29T12:19:19;24.70;99.90
4183;DHT22;2105;52.300;9.182;2022-07-29T12:21:46;24.80;99.90
4183;DHT22;2105;52.300;9.182;2022-07-29T12:24:13;24.80;99.90
4183;DHT22;2105;52.300;9.182;2022-07-29T12:26:49;25.20;99.90
4183;DHT22;2105;52.300;9.182;2022-07-29T12:29:16;25.60;99.90
4183;DHT22;2105;52.300;9.182;2022-07-29T12:31:43;26.10;99.90
4183;DHT22;2105;52.300;9.182;2022-07-29T12:34:12;26.20;99.90
4183;DHT22;2105;52.300;9.182;2022-07-29T12:36:41;26.30;99.90
4183;DHT22;2105;52.300;9.182;2022-07-29T12:39:09;26.30;99.90
4183;DHT22;2105;52.300;9.182;2022-07-29T12:41:37;26.00;99.90
4183;DHT22;2105;52.300;9.182;2022-07-29T12:44:04;25.60;99.90
4183;DHT22;2105;52.300;9.182;2022-07-29T12:46:31;25.40;99.90
4183;DHT22;2105;52.300;9.182;2022-07-29T12:48:57;25.20;99.90
4183;DHT22;2105;52.300;9.182;2022-07-29T12:51:31;25.10;99.90
4183;DHT22;2105;52.300;9.182;2022-07-29T12:54:04;25.00;99.90
4183;DHT22;2105;52.300;9.182;2022-07-29T12:56:32;25.00;99.90
4183;DHT22;2105;52.300;9.182;2022-07-29T12:58:59;25.10;99.90
4183;DHT22;2105;52.300;9.182;2022-07-29T13:01:25;25.00;99.90
4183;DHT22;2105;52.300;9.182;2022-07-29T13:03:54;24.90;99.90
4183;DHT22;2105;52.300;9.182;2022-07-29T13:06:30;25.00;99.90
4183;DHT22;2105;52.300;9.182;2022-07-29T13:09:03;25.20;99.90
4183;DHT22;2105;52.300;9.182;2022-07-29T13:11:30;25.40;99.90
4183;DHT22;2105;52.300;9.182;2022-07-29T13:13:57;25.60;99.90
4183;DHT22;2105;52.300;9.182;2022-07-29T13:16:24;25.90;99.90
4183;DHT22;2105;52.300;9.182;2022-07-29T13:19:03;26.00;99.90
4183;DHT22;2105;52.300;9.182;2022-07-29T13:21:30;26.00;99.90
4183;DHT22;2105;52.300;9.182;2022-07-29T13:23:57;26.10;99.90
4183;DHT22;2105;52.300;9.182;2022-07-29T13:26:25;26.10;99.90
4183;DHT22;2105;52.300;9.182;2022-07-29T13:28:53;26.00;99.90
4183;DHT22;2105;52.300;9.182;2022-07-29T13:31:20;26.00;99.90
4183;DHT22;2105;52.300;9.182;2022-07-29T13:33:47;26.00;99.90
4183;DHT22;2105;52.300;9.182;2022-07-29T13:36:14;26.00;99.90
4183;DHT22;2105;52.300;9.182;2022-07-29T13:38:40;25.90;99.90
4183;DHT22;2105;52.300;9.182;2022-07-29T13:41:07;25.90;99.90
4183;DHT22;2105;52.300;9.182;2022-07-29T13:43:35;25.90;99.90
4183;DHT22;2105;52.300;9.182;2022-07-29T13:46:02;25.70;99.90
4183;DHT22;2105;52.300;9.182;2022-07-29T13:48:29;25.80;99.90
4183;DHT22;2105;52.300;9.182;2022-07-29T13:50:56;25.80;99.90
4183;DHT22;2105;52.300;9.182;2022-07-29T13:53:23;25.80;99.90
4183;DHT22;2105;52.300;9.182;2022-07-29T13:55:49;25.80;99.90
4183;DHT22;2105;52.300;9.182;2022-07-29T13:58:17;25.80;99.90
4183;DHT22;2105;52.300;9.182;2022-07-29T14:00:45;25.80;99.90
4183;DHT22;2105;52.300;9.182;2022-07-29T14:03:12;25.90;99.90
4183;DHT22;2105;52.300;9.182;2022-07-29T14:05:38;26.00;99.90
4183;DHT22;2105;52.300;9.182;2022-07-29T14:08:05;25.80;99.90
4183;DHT22;2105;52.300;9.182;2022-07-29T14:10:31;25.80;99.90
4183;DHT22;2105;52.300;9.182;2022-07-29T14:12:58;25.80;99.90
4183;DHT22;2105;52.300;9.182;2022-07-29T14:15:25;25.80;99.90
4183;DHT22;2105;52.300;9.182;2022-07-29T14:17:53;26.00;99.90
4183;DHT22;2105;52.300;9.182;2022-07-29T14:20:19;26.30;99.90
4183;DHT22;2105;52.300;9.182;2022-07-29T14:22:46;26.40;99.90
4183;DHT22;2105;52.300;9.182;2022-07-29T14:25:13;26.60;99.90
4183;DHT22;2105;52.300;9.182;2022-07-29T14:27:40;26.90;99.90
4183;DHT22;2105;52.300;9.182;2022-07-29T14:30:08;27.20;99.90
4183;DHT22;2105;52.300;9.182;2022-07-29T14:32:35;27.20;99.90
4183;DHT22;2105;52.300;9.182;2022-07-29T14:35:03;27.10;99.90
4183;DHT22;2105;52.300;9.182;2022-07-29T14:37:30;26.70;99.90
4183;DHT22;2105;52.300;9.182;2022-07-29T14:39:57;26.50;99.90
4183;DHT22;2105;52.300;9.182;2022-07-29T14:42:27;26.40;99.90
4183;DHT22;2105;52.300;9.182;2022-07-29T14:44:53;26.30;99.90
4183;DHT22;2105;52.300;9.182;2022-07-29T14:47:20;26.20;99.90
4183;DHT22;2105;52.300;9.182;2022-07-29T14:49:47;26.30;99.90
4183;DHT22;2105;52.300;9.182;2022-07-29T14:52:15;26.30;99.90
4183;DHT22;2105;52.300;9.182;2022-07-29T14:54:41;26.30;99.90
4183;DHT22;2105;52.300;9.182;2022-07-29T14:57:08;26.30;99.90
4183;DHT22;2105;52.300;9.182;2022-07-29T14:59:35;26.20;99.90
4183;DHT22;2105;52.300;9.182;2022-07-29T15:02:01;26.20;99.90
4183;DHT22;2105;52.300;9.182;2022-07-29T15:04:28;26.20;99.90
4183;DHT22;2105;52.300;9.182;2022-07-29T15:06:55;26.30;99.90
4183;DHT22;2105;52.300;9.182;2022-07-29T15:09:23;26.50;99.90
4183;DHT22;2105;52.300;9.182;2022-07-29T15:11:50;26.90;99.90
4183;DHT22;2105;52.300;9.182;2022-07-29T15:14:16;27.10;99.90
4183;DHT22;2105;52.300;9.182;2022-07-29T15:16:43;27.40;99.90
4183;DHT22;2105;52.300;9.182;2022-07-29T15:19:10;27.40;99.90
4183;DHT22;2105;52.300;9.182;2022-07-29T15:21:38;27.20;99.90
4183;DHT22;2105;52.300;9.182;2022-07-29T15:24:05;27.00;99.90
4183;DHT22;2105;52.300;9.182;2022-07-29T15:26:33;26.80;99.90
4183;DHT22;2105;52.300;9.182;2022-07-29T15:29:00;26.70;99.90
4183;DHT22;2105;52.300;9.182;2022-07-29T15:31:27;26.50;99.90
4183;DHT22;2105;52.300;9.182;2022-07-29T15:33:53;26.30;99.90
4183;DHT22;2105;52.300;9.182;2022-07-29T15:36:20;26.10;99.90
4183;DHT22;2105;52.300;9.182;2022-07-29T15:38:47;26.00;99.90
4183;DHT22;2105;52.300;9.182;2022-07-29T15:41:15;25.90;99.90
4183;DHT22;2105;52.300;9.182;2022-07-29T15:43:44;25.80;99.90
4183;DHT22;2105;52.300;9.182;2022-07-29T15:46:13;25.70;99.90
4183;DHT22;2105;52.300;9.182;2022-07-29T15:48:57;25.70;99.90
4183;DHT22;2105;52.300;9.182;2022-07-29T15:51:24;25.60;99.90
4183;DHT22;2105;52.300;9.182;2022-07-29T15:53:51;25.60;99.90
4183;DHT22;2105;52.300;9.182;2022-07-29T15:56:17;25.50;99.90
4183;DHT22;2105;52.300;9.182;2022-07-29T15:58:45;25.50;99.90
4183;DHT22;2105;52.300;9.182;2022-07-29T16:01:12;25.50;99.90
4183;DHT22;2105;52.300;9.182;2022-07-29T16:03:39;25.40;99.90
4183;DHT22;2105;52.300;9.182;2022-07-29T16:06:05;25.40;99.90
4183;DHT22;2105;52.300;9.182;2022-07-29T16:08:32;25.40;99.90
4183;DHT22;2105;52.300;9.182;2022-07-29T16:10:59;25.40;99.90
4183;DHT22;2105;52.300;9.182;2022-07-29T16:13:25;25.30;99.90
4183;DHT22;2105;52.300;9.182;2022-07-29T16:15:53;25.30;99.90
4183;DHT22;2105;52.300;9.182;2022-07-29T16:18:20;25.20;99.90
4183;DHT22;2105;52.300;9.182;2022-07-29T16:20:47;25.20;99.90
4183;DHT22;2105;52.300;9.182;2022-07-29T16:23:13;25.10;99.90
4183;DHT22;2105;52.300;9.182;2022-07-29T16:25:41;25.00;99.90
4183;DHT22;2105;52.300;9.182;2022-07-29T16:28:08;25.00;99.90